createdAt,value
2023-05-13T06:59:26.711Z,3.97
2023-05-13T07:01:56.390Z,3.83
2023-05-13T07:04:25.985Z,3.95
2023-05-13T07:06:55.560Z,3.65
2023-05-13T07:09:27.940Z,3.63
2023-05-13T07:11:57.544Z,3.60
2023-05-13T07:14:27.113Z,3.30
2023-05-13T07:16:58.850Z,3.17
2023-05-13T07:19:28.441Z,3.20
2023-05-13T07:21:58.021Z,3.03
2023-05-13T07:24:30.113Z,3.10
2023-05-13T07:26:59.782Z,3.30
2023-05-13T07:29:29.323Z,3.00
2023-05-13T07:31:58.896Z,3.10
2023-05-13T07:34:28.444Z,2.85
2023-05-13T07:36:58.257Z,2.88
2023-05-13T07:39:30.349Z,3.20
2023-05-13T07:41:59.942Z,3.03
2023-05-13T07:44:30.086Z,2.97
2023-05-13T07:46:59.676Z,2.90
2023-05-13T07:49:29.407Z,2.90
2023-05-13T07:51:59.001Z,2.90
2023-05-13T07:54:31.255Z,2.72
2023-05-13T07:57:00.824Z,2.70
2023-05-13T07:59:30.417Z,2.63
2023-05-13T08:02:00.143Z,2.72
2023-05-13T08:04:29.750Z,2.70
2023-05-13T08:06:59.348Z,2.60
2023-05-13T08:09:31.486Z,2.90
2023-05-13T08:12:01.179Z,2.70
2023-05-13T08:14:30.772Z,2.70
2023-05-13T08:17:00.412Z,2.78
2023-05-13T08:19:29.979Z,2.55
2023-05-13T08:21:59.546Z,2.80
2023-05-13T08:24:31.671Z,2.83
2023-05-13T08:27:01.286Z,2.38
2023-05-13T08:29:30.851Z,2.60
2023-05-13T08:32:00.416Z,2.63
2023-05-13T08:34:30.062Z,2.60
2023-05-13T08:37:03.151Z,2.60
2023-05-13T08:39:35.348Z,2.50
2023-05-13T08:42:06.226Z,3.08
2023-05-13T08:47:09.400Z,2.65
2023-05-13T08:49:38.974Z,2.50
2023-05-13T08:52:09.088Z,2.50
2023-05-13T08:54:41.682Z,2.80
2023-05-13T08:57:11.190Z,2.38
2023-05-13T08:59:40.907Z,2.60
2023-05-13T09:02:10.392Z,2.50
2023-05-13T09:04:41.446Z,2.60
2023-05-13T09:07:11.634Z,2.55
2023-05-13T09:09:44.552Z,2.40
2023-05-13T09:12:14.115Z,2.60
2023-05-13T09:14:43.786Z,2.70
2023-05-13T09:17:13.360Z,2.75
2023-05-13T09:19:43.045Z,2.60
2023-05-13T09:22:20.111Z,2.53
2023-05-13T09:24:58.872Z,2.90
2023-05-13T09:27:38.577Z,2.60
2023-05-13T09:30:09.940Z,2.90
2023-05-13T09:32:39.509Z,2.60
2023-05-13T09:35:18.306Z,3.03
2023-05-13T09:37:48.233Z,2.65
2023-05-13T09:40:20.846Z,2.77
2023-05-13T09:42:50.613Z,2.90
2023-05-13T09:45:20.827Z,2.65
2023-05-13T09:47:53.851Z,2.88
2023-05-13T09:50:24.024Z,2.88
2023-05-13T09:52:53.877Z,3.13
2023-05-13T09:55:26.223Z,2.92
2023-05-13T09:57:56.413Z,2.85
2023-05-13T10:00:32.582Z,2.80
2023-05-13T10:03:02.492Z,2.63
2023-05-13T10:05:32.278Z,3.00
2023-05-13T10:08:02.016Z,2.90
2023-05-13T10:10:35.181Z,2.70
2023-05-13T10:13:07.370Z,2.72
2023-05-13T10:15:37.398Z,2.78
2023-05-13T10:18:07.774Z,2.77
2023-05-13T10:20:37.385Z,2.70
2023-05-13T10:23:07.055Z,2.70
2023-05-13T10:25:39.316Z,2.40
2023-05-13T10:28:09.000Z,2.83
2023-05-13T10:30:38.589Z,2.90
2023-05-13T10:33:08.174Z,2.72
2023-05-13T10:35:42.643Z,2.70
2023-05-13T10:38:12.885Z,2.83
2023-05-13T10:41:04.783Z,2.95
2023-05-13T10:43:34.936Z,2.72
2023-05-13T10:46:05.145Z,3.13
2023-05-13T10:48:41.638Z,2.90
2023-05-13T10:51:11.803Z,2.90
2023-05-13T10:53:47.405Z,2.87
2023-05-13T10:56:20.030Z,2.83
2023-05-13T10:59:00.284Z,2.90
2023-05-13T11:01:31.211Z,2.80
2023-05-13T11:04:01.983Z,2.95
2023-05-13T11:09:02.638Z,2.75
2023-05-13T11:11:37.808Z,2.97
2023-05-13T11:14:20.880Z,2.95
2023-05-13T11:16:51.994Z,2.90
2023-05-13T11:19:22.726Z,2.90
2023-05-13T11:21:54.501Z,2.75
2023-05-13T11:24:24.453Z,3.00
2023-05-13T11:26:57.972Z,3.23
2023-05-13T11:29:31.919Z,2.95
2023-05-13T11:32:01.785Z,3.00
2023-05-13T11:34:31.729Z,2.88
2023-05-13T11:37:10.462Z,3.03
2023-05-13T11:39:41.964Z,3.30
2023-05-13T11:42:14.209Z,3.08
2023-05-13T11:44:48.239Z,3.20
2023-05-13T11:47:17.800Z,2.83
2023-05-13T11:49:47.923Z,3.00
2023-05-13T11:52:18.544Z,2.70
2023-05-13T11:54:49.343Z,2.90
2023-05-13T11:57:24.549Z,3.10
2023-05-13T11:59:55.401Z,2.72
2023-05-13T12:04:55.483Z,2.90
2023-05-13T12:07:26.002Z,3.00
2023-05-13T12:09:56.001Z,3.00
2023-05-13T12:12:28.394Z,2.70
2023-05-13T12:14:58.802Z,2.72
2023-05-13T12:17:28.536Z,2.83
2023-05-13T12:20:08.503Z,2.85
2023-05-13T12:22:38.491Z,3.10
2023-05-13T12:25:38.262Z,2.80
2023-05-13T12:28:17.278Z,2.70
2023-05-13T12:30:51.748Z,2.90
2023-05-13T12:33:22.255Z,2.97
2023-05-13T12:35:52.721Z,2.90
2023-05-13T12:38:24.066Z,2.92
2023-05-13T12:40:54.917Z,3.05
2023-05-13T12:43:27.088Z,2.90
2023-05-13T12:45:57.625Z,2.90
2023-05-13T12:48:27.906Z,2.65
2023-05-13T12:50:59.541Z,2.83
2023-05-13T12:53:30.253Z,2.80
2023-05-13T12:55:59.951Z,2.92
2023-05-13T12:58:32.076Z,2.90
2023-05-13T13:01:01.647Z,3.00
2023-05-13T13:03:31.479Z,2.97
2023-05-13T13:06:01.105Z,3.10
2023-05-13T13:08:30.898Z,2.90
2023-05-13T13:11:01.816Z,3.00
2023-05-13T13:16:03.349Z,3.00
2023-05-13T13:18:33.051Z,3.10
2023-05-13T13:21:02.679Z,3.13
2023-05-13T13:23:32.252Z,3.00
2023-05-13T13:26:01.819Z,2.70
2023-05-13T13:28:34.393Z,2.90
2023-05-13T13:31:03.976Z,2.90
2023-05-13T13:33:33.541Z,2.90
2023-05-13T13:36:03.057Z,2.75
2023-05-13T13:38:32.642Z,2.70
2023-05-13T13:41:02.308Z,2.95
2023-05-13T13:43:34.451Z,2.88
2023-05-13T13:46:04.055Z,2.40
2023-05-13T13:48:33.786Z,2.95
2023-05-13T13:51:03.321Z,2.90
2023-05-13T13:53:32.855Z,2.90
2023-05-13T13:56:02.427Z,3.00
2023-05-13T13:58:34.560Z,2.78
2023-05-13T14:01:04.164Z,2.92
2023-05-13T14:03:33.823Z,2.83
2023-05-13T14:06:03.392Z,3.00
2023-05-13T14:08:32.887Z,2.80
2023-05-13T14:11:02.622Z,2.70
2023-05-13T14:13:34.742Z,2.60
2023-05-13T14:16:04.441Z,2.95
2023-05-13T14:18:34.092Z,2.70
2023-05-13T14:21:03.694Z,3.10
2023-05-13T14:23:33.264Z,3.30
2023-05-13T14:26:02.834Z,2.90
2023-05-13T14:28:35.026Z,2.60
2023-05-13T14:31:04.593Z,2.70
2023-05-13T14:33:34.183Z,2.80
2023-05-13T14:36:03.757Z,2.50
2023-05-13T14:38:33.314Z,2.90
2023-05-13T14:41:02.861Z,4.30
2023-05-13T14:43:34.978Z,2.90
2023-05-13T14:46:04.893Z,2.70
2023-05-13T14:48:34.480Z,2.70
2023-05-13T14:51:04.025Z,2.30
2023-05-13T14:53:33.577Z,2.60
2023-05-13T14:56:03.106Z,2.50
2023-05-13T14:58:35.257Z,2.33
2023-05-13T15:01:04.861Z,2.53
2023-05-13T15:03:34.553Z,2.53
2023-05-13T15:06:04.530Z,2.80
2023-05-13T15:08:34.163Z,2.83
2023-05-13T15:11:03.715Z,2.90
2023-05-13T15:13:37.014Z,2.58
2023-05-13T15:16:07.171Z,2.40
2023-05-13T15:18:36.739Z,2.80
2023-05-13T15:21:06.546Z,2.70
2023-05-13T15:23:36.449Z,2.63
2023-05-13T15:26:06.145Z,2.47
2023-05-13T15:28:38.292Z,2.75
2023-05-13T15:31:08.169Z,2.55
2023-05-13T15:33:37.803Z,2.47
2023-05-13T15:36:10.018Z,2.30
2023-05-13T15:38:39.588Z,2.50
2023-05-13T15:41:09.408Z,2.35
2023-05-13T15:43:41.509Z,2.40
2023-05-13T15:46:11.124Z,2.60
2023-05-13T15:48:40.952Z,2.65
2023-05-13T15:51:10.485Z,2.30
2023-05-13T15:53:40.021Z,2.53
2023-05-13T15:56:09.973Z,2.58
2023-05-13T15:58:42.131Z,2.60
2023-05-13T16:01:11.691Z,2.50
2023-05-13T16:03:41.278Z,2.70
2023-05-13T16:06:10.854Z,2.50
2023-05-13T16:08:40.505Z,2.63
2023-05-13T16:11:11.955Z,2.63
2023-05-13T16:13:44.762Z,2.42
2023-05-13T16:16:14.391Z,2.90
2023-05-13T16:18:44.043Z,2.63
2023-05-13T16:21:13.646Z,2.83
2023-05-13T16:23:43.260Z,2.80
2023-05-13T16:26:12.795Z,2.78
2023-05-13T16:28:45.077Z,2.88
2023-05-13T16:31:14.648Z,2.90
2023-05-13T16:33:44.206Z,2.90
2023-05-13T16:36:14.060Z,2.85
2023-05-13T16:38:44.029Z,2.70
2023-05-13T16:41:13.713Z,3.10
2023-05-13T16:43:46.083Z,2.70
2023-05-13T16:46:17.528Z,2.80
2023-05-13T16:48:47.480Z,2.65
2023-05-13T16:51:17.056Z,2.75
2023-05-13T16:53:46.619Z,2.70
2023-05-13T16:56:16.784Z,2.83
2023-05-13T16:58:48.892Z,2.72
2023-05-13T17:01:18.499Z,2.80
2023-05-13T17:03:48.151Z,3.00
2023-05-13T17:06:17.734Z,2.83
2023-05-13T17:08:47.254Z,2.80
2023-05-13T17:11:18.714Z,2.70
2023-05-13T17:13:51.370Z,2.85
2023-05-13T17:16:21.004Z,2.67
2023-05-13T17:18:50.624Z,2.83
2023-05-13T17:21:20.226Z,2.92
2023-05-13T17:23:49.806Z,2.90
2023-05-13T17:26:19.349Z,3.05
2023-05-13T17:28:51.520Z,3.17
2023-05-13T17:31:21.088Z,2.83
2023-05-13T17:33:50.676Z,2.90
2023-05-13T17:36:20.287Z,2.85
2023-05-13T17:38:50.765Z,2.78
2023-05-13T17:41:20.356Z,2.83
2023-05-13T17:43:52.486Z,2.80
2023-05-13T17:46:22.042Z,2.90
2023-05-13T17:48:51.758Z,2.75
2023-05-13T17:51:21.382Z,3.13
2023-05-13T17:53:50.931Z,2.70
2023-05-13T17:56:21.504Z,2.90
2023-05-13T17:58:53.610Z,2.70
2023-05-13T18:01:23.292Z,2.80
2023-05-13T18:03:52.830Z,2.80
2023-05-13T18:06:22.384Z,2.83
2023-05-13T18:08:51.945Z,2.90
2023-05-13T18:11:22.181Z,2.90
2023-05-13T18:13:54.359Z,2.92
2023-05-13T18:16:23.947Z,3.05
2023-05-13T18:18:53.589Z,3.10
2023-05-13T18:21:24.356Z,3.35
2023-05-13T18:23:53.894Z,3.42
2023-05-13T18:26:23.713Z,2.80
2023-05-13T18:28:55.983Z,3.00
2023-05-13T18:31:25.646Z,3.30
2023-05-13T18:33:55.209Z,3.40
2023-05-13T18:36:24.736Z,3.40
2023-05-13T18:38:54.439Z,3.50
2023-05-13T18:41:24.063Z,3.10
2023-05-13T18:43:56.218Z,2.97
2023-05-13T18:46:26.119Z,2.70
2023-05-13T18:48:55.678Z,3.00
2023-05-13T18:51:25.260Z,3.55
2023-05-13T18:53:54.989Z,3.13
2023-05-13T18:56:24.604Z,2.90
2023-05-13T18:58:57.247Z,2.83
2023-05-13T19:01:26.846Z,2.72
2023-05-13T19:03:56.842Z,2.75
2023-05-13T19:06:26.508Z,3.03
2023-05-13T19:08:56.146Z,2.80
2023-05-13T19:11:26.303Z,2.85
2023-05-13T19:13:58.474Z,2.90
2023-05-13T19:16:28.559Z,2.60
2023-05-13T19:18:58.191Z,2.80
2023-05-13T19:21:27.778Z,2.95
2023-05-13T19:23:58.847Z,2.95
2023-05-13T19:26:28.572Z,2.92
2023-05-13T19:29:00.865Z,2.85
2023-05-13T19:31:31.772Z,3.00
2023-05-13T19:36:31.256Z,2.90
2023-05-13T19:39:00.930Z,3.10
2023-05-13T19:41:30.524Z,3.40
2023-05-13T19:44:02.655Z,3.05
2023-05-13T19:46:32.385Z,3.20
2023-05-13T19:49:01.993Z,3.55
2023-05-13T19:51:31.803Z,3.40
2023-05-13T19:54:01.987Z,2.97
2023-05-13T19:56:31.691Z,3.10
2023-05-13T19:59:03.825Z,2.90
2023-05-13T20:01:34.055Z,3.00
2023-05-13T20:04:03.712Z,3.10
2023-05-13T20:06:33.476Z,3.30
2023-05-13T20:09:03.590Z,3.03
2023-05-13T20:11:33.135Z,3.20
2023-05-13T20:14:05.452Z,3.35
2023-05-13T20:16:34.995Z,3.35
2023-05-13T20:19:04.633Z,3.25
2023-05-13T20:21:34.606Z,3.20
2023-05-13T20:24:04.276Z,3.55
2023-05-13T20:26:35.137Z,3.30
2023-05-13T20:29:08.313Z,3.30
2023-05-13T20:31:42.554Z,3.20
2023-05-13T20:34:12.138Z,3.17
2023-05-13T20:36:41.746Z,3.13
2023-05-13T20:39:11.338Z,3.25
2023-05-13T20:41:41.104Z,3.33
2023-05-13T20:44:15.958Z,3.30
2023-05-13T20:46:45.597Z,3.50
2023-05-13T20:49:15.146Z,2.90
2023-05-13T20:51:45.018Z,3.55
2023-05-13T20:54:14.887Z,3.50
2023-05-13T20:56:44.518Z,3.70
2023-05-13T20:59:16.620Z,3.60
2023-05-13T21:01:47.621Z,3.35
2023-05-13T21:04:17.399Z,3.47
2023-05-13T21:06:47.030Z,3.35
2023-05-13T21:09:16.644Z,3.45
2023-05-13T21:11:46.308Z,3.50
2023-05-13T21:14:18.459Z,3.40
2023-05-13T21:16:48.009Z,4.15
2023-05-13T21:19:24.131Z,6.18
2023-05-13T21:21:53.756Z,11.80
2023-05-13T21:24:23.431Z,11.60
2023-05-13T21:26:53.949Z,8.60
2023-05-13T21:29:26.117Z,5.38
2023-05-13T21:31:55.681Z,4.07
2023-05-13T21:34:25.327Z,3.97
2023-05-13T21:36:54.942Z,3.92
2023-05-13T21:39:24.512Z,3.90
2023-05-13T21:41:54.213Z,3.85
2023-05-13T21:44:26.903Z,3.90
2023-05-13T21:46:56.418Z,3.70
2023-05-13T21:49:26.380Z,3.80
2023-05-13T21:51:55.964Z,4.07
2023-05-13T21:54:25.519Z,3.90
2023-05-13T21:56:55.079Z,4.13
2023-05-13T21:59:27.309Z,3.72
2023-05-13T22:01:56.911Z,3.67
2023-05-13T22:04:26.912Z,4.28
2023-05-13T22:06:56.726Z,3.63
2023-05-13T22:09:26.261Z,3.70
2023-05-13T22:11:55.866Z,3.70
2023-05-13T22:14:28.071Z,4.13
2023-05-13T22:17:08.429Z,4.28
2023-05-13T22:19:39.652Z,4.50
2023-05-13T22:22:09.343Z,4.32
2023-05-13T22:24:38.930Z,4.18
2023-05-13T22:27:08.941Z,4.13
2023-05-13T22:29:41.080Z,4.20
2023-05-13T22:32:11.226Z,4.28
2023-05-13T22:34:40.888Z,4.30
2023-05-13T22:37:10.428Z,4.25
2023-05-13T22:39:40.009Z,4.20
2023-05-13T22:42:10.269Z,4.40
2023-05-13T22:44:42.417Z,4.20
2023-05-13T22:47:11.997Z,4.50
2023-05-13T22:49:41.655Z,4.70
2023-05-13T22:52:11.286Z,4.40
2023-05-13T22:54:41.673Z,4.55
2023-05-13T22:57:11.327Z,4.60
2023-05-13T22:59:43.481Z,4.78
2023-05-13T23:02:13.070Z,4.40
2023-05-13T23:04:42.711Z,4.90
2023-05-13T23:07:12.281Z,5.45
2023-05-13T23:09:41.990Z,4.70
2023-05-13T23:12:11.669Z,4.35
2023-05-13T23:14:43.854Z,4.43
2023-05-13T23:17:13.482Z,4.55
2023-05-13T23:19:43.058Z,4.60
2023-05-13T23:22:12.731Z,4.30
2023-05-13T23:24:42.288Z,4.85
2023-05-13T23:27:11.935Z,3.95
2023-05-13T23:29:44.166Z,4.47
2023-05-13T23:32:13.943Z,4.20
2023-05-13T23:34:43.573Z,4.20
2023-05-13T23:37:15.728Z,4.20
2023-05-13T23:39:45.290Z,4.38
2023-05-13T23:42:14.899Z,4.07
2023-05-13T23:44:47.068Z,4.30
2023-05-13T23:47:16.870Z,4.07
2023-05-13T23:49:46.537Z,3.80
2023-05-13T23:52:16.111Z,4.03
2023-05-13T23:54:45.706Z,4.20
2023-05-13T23:57:15.355Z,4.00
2023-05-13T23:59:47.501Z,4.32
